createdAt,value
2019-05-06T00:02:35.464Z,2.085876
2019-05-06T00:07:58.131Z,2.176514
2019-05-06T00:13:20.869Z,2.106018
2019-05-06T00:18:44.838Z,2.045593
2019-05-06T00:24:07.180Z,1.954956
2019-05-06T00:29:29.842Z,1.934814
2019-05-06T00:34:54.454Z,1.854248
2019-05-06T00:40:16.168Z,1.773682
2019-05-06T00:45:38.906Z,1.491699
2019-05-06T00:51:01.523Z,1.431274
2019-05-06T00:56:24.400Z,1.904602
2019-05-06T01:01:47.816Z,2.176514
2019-05-06T01:07:10.498Z,2.226868
2019-05-06T01:12:34.612Z,2.106018
2019-05-06T01:17:56.924Z,2.186584
2019-05-06T01:23:20.412Z,2.317505
2019-05-06T01:28:43.529Z,2.398071
2019-05-06T01:34:05.780Z,2.25708
2019-05-06T01:39:28.459Z,1.954956
2019-05-06T01:44:51.075Z,1.773682
2019-05-06T01:50:14.056Z,1.824036
2019-05-06T01:55:37.502Z,1.995239
2019-05-06T02:01:00.380Z,1.894531
2019-05-06T02:06:24.919Z,1.75354
2019-05-06T02:11:47.852Z,1.75354
2019-05-06T02:17:09.132Z,1.894531
2019-05-06T02:22:31.779Z,1.975098
2019-05-06T02:27:54.460Z,1.975098
2019-05-06T02:33:18.188Z,2.075806
2019-05-06T02:38:47.785Z,2.035522
2019-05-06T02:44:04.470Z,2.106018
2019-05-06T02:49:27.118Z,2.226868
2019-05-06T02:54:49.799Z,2.25708
2019-05-06T03:00:13.130Z,2.357788
2019-05-06T03:05:36.914Z,2.448425
2019-05-06T03:10:59.571Z,2.498779
2019-05-06T03:16:23.706Z,2.50885
2019-05-06T03:21:46.389Z,2.478638
2019-05-06T03:27:09.113Z,2.50885
2019-05-06T03:32:37.522Z,2.559204
2019-05-06T03:37:55.365Z,2.589417
2019-05-06T03:43:18.057Z,2.609558
2019-05-06T03:48:43.780Z,2.609558
2019-05-06T03:54:03.531Z,2.619629
2019-05-06T03:59:27.047Z,2.6297
2019-05-06T04:04:53.441Z,2.740479
2019-05-06T04:10:13.571Z,2.770691
2019-05-06T04:15:36.068Z,2.891541
2019-05-06T04:20:59.728Z,2.982178
2019-05-06T04:26:23.901Z,2.951965
2019-05-06T04:31:46.159Z,3.01239
2019-05-06T04:37:08.806Z,3.042603
2019-05-06T04:42:34.381Z,3.082886
2019-05-06T04:47:54.268Z,3.173523
2019-05-06T04:53:17.844Z,3.304443
2019-05-06T04:58:42.853Z,3.38501
2019-05-06T05:04:03.721Z,3.445435
2019-05-06T05:09:27.083Z,3.526001
2019-05-06T05:14:51.764Z,3.666992
2019-05-06T05:20:12.701Z,3.777771
2019-05-06T05:25:36.699Z,3.999329
2019-05-06T05:30:59.424Z,4.200745
2019-05-06T05:36:23.169Z,4.39209
2019-05-06T05:41:45.752Z,4.533081
2019-05-06T05:47:09.402Z,4.694214
2019-05-06T05:52:32.838Z,4.935913
2019-05-06T05:57:55.676Z,5.227966
2019-05-06T06:03:18.322Z,5.046692
2019-05-06T06:08:42.897Z,5.298462
2019-05-06T06:14:03.776Z,5.560303
2019-05-06T06:19:26.525Z,5.812073
2019-05-06T06:24:49.334Z,6.144409
2019-05-06T06:30:12.862Z,6.204834
2019-05-06T06:35:35.611Z,6.476746
2019-05-06T06:40:58.289Z,6.647949
2019-05-06T06:46:22.351Z,6.607666
2019-05-06T06:51:43.762Z,6.77887
2019-05-06T06:57:09.279Z,6.829224
2019-05-06T07:02:32.763Z,6.728516
2019-05-06T07:07:53.997Z,6.929932
2019-05-06T07:13:16.761Z,7.151489
2019-05-06T07:18:42.697Z,7.634888
2019-05-06T07:24:05.454Z,7.725525
2019-05-06T07:29:28.225Z,8.03772
2019-05-06T07:34:52.898Z,8.249207
2019-05-06T07:40:13.540Z,8.702393
2019-05-06T07:45:36.215Z,8.269348
2019-05-06T07:50:58.862Z,8.400269
2019-05-06T07:56:22.876Z,8.944092
2019-05-06T08:01:46.565Z,9.195862
2019-05-06T08:07:09.427Z,9.336853
2019-05-06T08:12:32.614Z,9.487915
2019-05-06T08:17:55.704Z,8.79303
2019-05-06T08:23:18.347Z,10.313721
2019-05-06T08:28:42.141Z,9.961243
2019-05-06T08:34:03.800Z,10.505066
2019-05-06T08:39:26.550Z,9.951172
2019-05-06T08:44:50.483Z,10.132446
2019-05-06T08:50:13.298Z,10.464783
2019-05-06T08:55:36.515Z,10.394287
2019-05-06T09:00:59.250Z,10.364075
2019-05-06T09:06:29.885Z,11.028748
2019-05-06T09:11:47.699Z,11.703491
2019-05-06T09:17:12.030Z,13.274536
2019-05-06T09:22:33.098Z,11.270447
2019-05-06T09:27:56.819Z,10.092163
2019-05-06T09:33:19.540Z,11.532288
2019-05-06T09:38:42.602Z,13.093262
2019-05-06T09:44:06.173Z,12.509155
2019-05-06T09:49:29.295Z,12.730713
2019-05-06T09:54:53.474Z,12.18689
2019-05-06T10:00:16.105Z,11.703491
2019-05-06T10:05:38.757Z,12.478943
2019-05-06T10:11:03.101Z,12.730713
2019-05-06T10:16:24.020Z,12.609863
2019-05-06T10:21:46.706Z,11.955261
2019-05-06T10:27:09.454Z,12.9422
2019-05-06T10:32:32.761Z,12.660217
2019-05-06T10:37:56.320Z,13.294678
2019-05-06T10:43:19.632Z,13.677368
2019-05-06T10:48:42.498Z,13.546448
2019-05-06T10:54:04.906Z,12.398376
2019-05-06T10:59:27.513Z,13.032837
2019-05-06T11:04:52.934Z,13.878784
2019-05-06T11:10:23.561Z,12.851562
2019-05-06T11:15:38.767Z,12.489014
2019-05-06T11:21:03.373Z,14.714661
2019-05-06T11:26:24.294Z,13.254395
2019-05-06T11:31:46.952Z,15.067139
2019-05-06T11:37:12.021Z,13.616943
2019-05-06T11:42:35.755Z,16.980591
2019-05-06T11:47:56.834Z,15.731812
2019-05-06T11:53:19.478Z,16.497192
2019-05-06T11:58:42.708Z,14.543457
2019-05-06T12:04:05.890Z,13.133545
2019-05-06T12:09:28.505Z,13.143616
2019-05-06T12:14:52.652Z,15.187988
2019-05-06T12:20:13.873Z,15.701599
2019-05-06T12:25:36.518Z,18.440857
2019-05-06T12:30:59.710Z,15.026855
2019-05-06T12:36:22.371Z,12.760925
2019-05-06T12:41:46.858Z,12.489014
2019-05-06T12:47:10.167Z,12.287598
2019-05-06T12:52:32.826Z,12.176819
2019-05-06T12:57:56.499Z,12.740784
2019-05-06T13:03:19.203Z,13.254395
2019-05-06T13:08:56.373Z,16.920166
2019-05-06T13:14:05.620Z,15.026855
2019-05-06T13:19:28.370Z,13.244324
2019-05-06T13:24:52.027Z,13.042908
2019-05-06T13:30:13.731Z,12.337952
2019-05-06T13:35:36.418Z,12.630005
2019-05-06T13:40:59.060Z,13.294678
2019-05-06T13:46:23.434Z,13.616943
2019-05-06T13:51:45.339Z,13.929138
2019-05-06T13:57:08.994Z,13.627014
2019-05-06T14:02:33.460Z,14.0802
2019-05-06T14:07:54.318Z,13.314819
2019-05-06T14:13:18.055Z,12.962341
2019-05-06T14:18:42.712Z,12.801208
2019-05-06T14:24:03.419Z,14.392395
2019-05-06T14:29:27.136Z,16.869812
2019-05-06T14:34:51.870Z,17.947388
2019-05-06T14:40:12.431Z,19.115601
2019-05-06T14:45:36.039Z,15.641174
2019-05-06T14:50:58.678Z,14.996643
2019-05-06T14:56:22.559Z,13.355103
2019-05-06T15:01:45.750Z,12.952271
2019-05-06T15:07:07.597Z,12.619934
2019-05-06T15:12:30.271Z,12.257385
2019-05-06T15:17:53.320Z,12.116394
2019-05-06T15:23:16.685Z,11.844482
2019-05-06T15:28:39.348Z,11.743774
2019-05-06T15:34:02.539Z,11.592712
2019-05-06T15:39:23.792Z,11.572571
2019-05-06T15:44:47.094Z,11.451721
2019-05-06T15:50:10.460Z,11.300659
2019-05-06T15:55:32.807Z,10.988464
2019-05-06T16:00:55.313Z,8.611755
2019-05-06T16:06:17.969Z,7.604675
2019-05-06T16:11:41.813Z,7.685242
2019-05-06T16:17:03.368Z,7.78595
2019-05-06T16:22:27.088Z,7.78595
2019-05-06T16:27:52.027Z,7.6651
2019-05-06T16:33:14.974Z,7.725525
2019-05-06T16:38:36.140Z,7.836304
2019-05-06T16:43:58.811Z,7.876587
2019-05-06T16:49:23.056Z,7.91687
2019-05-06T16:54:47.137Z,7.91687
2019-05-06T17:00:09.885Z,7.876587
2019-05-06T17:05:33.642Z,7.846375
2019-05-06T17:10:56.493Z,7.755737
2019-05-06T17:16:19.154Z,7.765808
2019-05-06T17:21:42.380Z,7.78595
2019-05-06T17:27:08.868Z,7.846375
2019-05-06T17:32:33.248Z,7.816162
2019-05-06T17:37:53.197Z,7.836304
2019-05-06T17:43:15.947Z,7.816162
2019-05-06T17:48:38.611Z,7.765808
2019-05-06T17:54:01.300Z,7.574463
2019-05-06T17:59:24.970Z,7.54425
2019-05-06T18:04:48.623Z,7.54425
2019-05-06T18:10:11.965Z,7.41333
2019-05-06T18:15:34.922Z,7.393188
2019-05-06T18:20:57.575Z,7.362976
2019-05-06T18:26:20.368Z,7.302551
2019-05-06T18:31:43.093Z,7.191772
2019-05-06T18:37:06.753Z,7.141418
2019-05-06T18:42:29.447Z,7.191772
2019-05-06T18:47:53.262Z,7.272339
2019-05-06T18:53:16.906Z,7.181702
2019-05-06T18:58:39.646Z,7.04071
2019-05-06T19:04:03.361Z,6.960144
2019-05-06T19:09:25.991Z,6.819153
2019-05-06T19:14:49.411Z,6.859436
2019-05-06T19:20:12.084Z,6.758728
2019-05-06T19:25:35.751Z,6.678162
2019-05-06T19:30:58.436Z,6.577454
2019-05-06T19:36:23.191Z,6.597595
2019-05-06T19:41:43.837Z,6.476746
2019-05-06T19:47:06.634Z,6.426392
2019-05-06T19:52:29.321Z,6.426392
2019-05-06T19:57:52.658Z,6.446533
2019-05-06T20:03:16.150Z,6.547241
2019-05-06T20:08:38.959Z,6.567383
2019-05-06T20:14:02.102Z,6.506958
2019-05-06T20:19:30.634Z,6.396179
2019-05-06T20:24:48.314Z,6.345825
2019-05-06T20:30:11.284Z,6.295471
2019-05-06T20:35:34.999Z,6.345825
2019-05-06T20:40:58.018Z,6.325684
2019-05-06T20:46:21.937Z,6.27533
2019-05-06T20:51:43.411Z,6.164551
2019-05-06T20:57:06.103Z,6.104126
2019-05-06T21:02:28.813Z,5.993347
2019-05-06T21:07:52.544Z,5.842285
2019-05-06T21:13:28.487Z,5.922852
2019-05-06T21:18:38.962Z,6.013489
2019-05-06T21:24:02.096Z,6.114197
2019-05-06T21:29:24.416Z,6.134338
2019-05-06T21:34:47.167Z,6.144409
2019-05-06T21:40:11.974Z,6.204834
2019-05-06T21:45:33.208Z,6.144409
2019-05-06T21:50:56.354Z,6.174622
2019-05-06T21:56:19.066Z,6.114197
2019-05-06T22:01:42.902Z,6.03363
2019-05-06T22:07:05.459Z,6.053772
2019-05-06T22:12:28.305Z,6.013489
2019-05-06T22:17:54.130Z,6.013489
2019-05-06T22:23:15.397Z,6.104126
2019-05-06T22:28:38.078Z,6.083984
2019-05-06T22:34:00.782Z,6.03363
2019-05-06T22:39:23.468Z,6.013489
2019-05-06T22:44:46.309Z,5.932922
2019-05-06T22:50:10.037Z,5.872498
2019-05-06T22:55:33.039Z,5.963135
2019-05-06T23:00:56.849Z,5.932922
2019-05-06T23:06:21.809Z,6.063843
2019-05-06T23:11:42.592Z,6.144409
2019-05-06T23:17:05.280Z,6.134338
2019-05-06T23:22:27.920Z,6.114197
2019-05-06T23:27:52.462Z,6.053772
2019-05-06T23:33:14.186Z,5.993347
2019-05-06T23:38:36.865Z,5.953064
2019-05-06T23:43:59.552Z,5.90271
2019-05-06T23:49:22.412Z,5.661011
2019-05-06T23:54:46.304Z,5.298462
